Time;durP1;ratioP1;P1;durP2;ratioP2;P2;SDS_P1;SDS_P2;PMS_P1;PMS_P2;Temp;Humidity;BMP_temperature;BMP_pressure;BME280_temperature;BME280_humidity;BME280_pressure;Samples;Min_cycle;Max_cycle;Signal;HPM_P1;HPM_P2
2023/01/11 00:01:06;;;;;;;;;;;;;;;9.38;73.50;100561.88;5009460;28;19948;-78
2023/01/11 00:03:32;;;;;;;;;;;;;;;9.40;73.60;100557.09;5009574;28;19925;-78
2023/01/11 00:05:58;;;;;;;;;;;;;;;9.42;73.34;100560.34;5008178;28;19921;-78
2023/01/11 00:08:26;;;;;;;;;;;;;;;9.43;73.29;100551.22;5004460;28;19918;-77
2023/01/11 00:10:52;;;;;;;;;;;;;;;9.45;73.46;100551.78;5014069;28;20609;-78
2023/01/11 00:13:18;;;;;;;;;;;;;;;9.46;73.42;100553.41;5009673;28;19925;-79
2023/01/11 00:15:43;;;;;;;;;;;;;;;9.49;73.29;100546.72;5008311;28;20313;-76
2023/01/11 00:18:09;;;;;;;;;;;;;;;9.50;73.41;100553.78;5006497;28;19937;-78
2023/01/11 00:20:37;;;;;;;;;;;;;;;9.52;73.37;100548.94;5008172;28;19925;-80
2023/01/11 00:23:02;;;;;;;;;;;;;;;9.52;73.28;100547.09;5009499;28;19928;-78
2023/01/11 00:25:27;;;;;;;;;;;;;;;9.54;73.26;100542.25;5010912;28;19917;-78
2023/01/11 00:27:53;;;;;;;;;;;;;;;9.56;73.29;100544.72;5007610;28;19922;-77
2023/01/11 00:30:18;;;;;;;;;;;;;;;9.58;73.26;100539.09;5002263;28;19921;-78
2023/01/11 00:32:43;;;;;;;;;;;;;;;9.59;73.29;100543.41;5008229;28;20416;-79
2023/01/11 00:35:08;;;;;;;;;;;;;;;9.61;73.34;100541.31;5011205;28;19933;-78
2023/01/11 00:37:34;;;;;;;;;;;;;;;9.62;73.18;100557.22;5010375;28;19933;-75
2023/01/11 00:39:59;;;;;;;;;;;;;;;9.63;73.19;100537.31;5007159;28;19934;-77
2023/01/11 00:47:59;;;;;;;;;;;;;;;9.65;73.22;100529.78;5011419;28;19936;-78
2023/01/11 00:50:29;;;;;;;;;;;;;;;9.69;73.45;100543.59;5009090;28;19946;-76
2023/01/11 00:52:55;;;;;;;;;;;;;;;9.70;73.34;100539.84;5004694;28;19925;-78
2023/01/11 00:55:20;;;;;;;;;;;;;;;9.71;73.30;100528.81;5009080;28;20012;-78
2023/01/11 00:57:46;;;;;;;;;;;;;;;9.73;73.52;100539.38;5008329;28;19953;-78
2023/01/11 01:00:11;;;;;;;;;;;;;;;9.74;73.23;100531.03;5007778;28;19929;-78
2023/01/11 01:02:37;;;;;;;;;;;;;;;9.77;73.30;100534.31;5009168;28;20319;-80
2023/01/11 01:05:02;;;;;;;;;;;;;;;9.78;73.25;100534.06;5008699;28;19930;-78
2023/01/11 01:07:27;;;;;;;;;;;;;;;9.80;73.22;100544.59;5006773;28;19929;-78
2023/01/11 01:09:52;;;;;;;;;;;;;;;9.81;73.16;100524.66;5003884;28;19940;-78
2023/01/11 01:15:02;;;;;;;;;;;;;;;9.83;73.26;100536.03;5008781;28;19955;-76
2023/01/11 01:17:27;;;;;;;;;;;;;;;9.84;73.24;100538.47;5005649;28;19929;-77
2023/01/11 01:19:52;;;;;;;;;;;;;;;9.86;73.40;100533.66;5009624;28;19933;-77
2023/01/11 01:22:17;;;;;;;;;;;;;;;9.87;73.42;100538.00;5009609;28;20301;-78
2023/01/11 01:24:43;;;;;;;;;;;;;;;9.89;73.22;100538.56;5008041;28;19926;-79
2023/01/11 01:27:08;;;;;;;;;;;;;;;9.91;73.36;100538.34;5009822;28;20013;-77
2023/01/11 01:29:33;;;;;;;;;;;;;;;9.92;73.40;100542.66;5008379;28;19917;-77
2023/01/11 01:31:58;;;;;;;;;;;;;;;9.93;73.29;100536.22;5006370;28;19930;-79
2023/01/11 01:34:24;;;;;;;;;;;;;;;9.95;73.38;100534.06;4995820;28;19965;-78
2023/01/11 01:36:49;;;;;;;;;;;;;;;9.95;73.43;100532.22;5009220;28;19925;-79
2023/01/11 01:39:14;;;;;;;;;;;;;;;9.96;73.41;100533.84;5009350;28;20317;-75
2023/01/11 01:41:40;;;;;;;;;;;;;;;9.98;73.69;100536.31;5009221;28;19921;-78
2023/01/11 01:44:24;;;;;;;;;;;;;;;9.99;73.86;100529.84;5008237;28;19917;-78
2023/01/11 01:46:49;;;;;;;;;;;;;;;10.01;73.61;100526.91;5007967;28;19948;-79
2023/01/11 01:49:15;;;;;;;;;;;;;;;10.02;73.67;100533.94;5008625;28;19926;-78
2023/01/11 01:51:42;;;;;;;;;;;;;;;10.04;73.62;100535.31;5019189;28;19930;-79
2023/01/11 01:54:11;;;;;;;;;;;;;;;10.05;73.69;100536.13;5009205;28;20059;-77
2023/01/11 01:56:48;;;;;;;;;;;;;;;10.07;73.66;100537.53;5005300;28;20388;-78
2023/01/11 01:59:15;;;;;;;;;;;;;;;10.08;73.73;100532.94;5008100;28;19925;-78
2023/01/11 02:01:46;;;;;;;;;;;;;;;10.10;73.78;100538.91;5005578;28;19924;-79
2023/01/11 02:04:16;;;;;;;;;;;;;;;10.12;73.83;100531.41;5006704;28;20338;-78
2023/01/11 02:06:42;;;;;;;;;;;;;;;10.12;73.76;100532.22;5007967;28;20016;-78
2023/01/11 02:09:22;;;;;;;;;;;;;;;10.15;73.90;100533.59;5005949;28;20008;-78
2023/01/11 02:11:49;;;;;;;;;;;;;;;10.16;73.90;100537.94;5009773;28;19940;-78
2023/01/11 02:14:16;;;;;;;;;;;;;;;10.18;73.84;100535.84;5009178;28;19945;-78
2023/01/11 02:16:41;;;;;;;;;;;;;;;10.18;74.01;100531.25;5008127;28;20024;-77
2023/01/11 02:19:15;;;;;;;;;;;;;;;10.22;73.96;100538.84;5007984;28;20000;-77
2023/01/11 02:21:43;;;;;;;;;;;;;;;10.22;73.91;100545.06;5005877;28;19932;-78
2023/01/11 02:24:13;;;;;;;;;;;;;;;10.24;73.88;100529.44;5006185;28;20380;-78
2023/01/11 02:26:44;;;;;;;;;;;;;;;10.25;73.95;100525.66;5006559;28;19917;-76
2023/01/11 02:29:10;;;;;;;;;;;;;;;10.28;74.02;100530.63;5006665;28;19972;-78
2023/01/11 02:31:35;;;;;;;;;;;;;;;10.28;74.07;100522.53;5007977;28;19964;-78
2023/01/11 02:34:09;;;;;;;;;;;;;;;10.30;73.97;100528.47;5004536;28;19918;-77
2023/01/11 02:36:49;;;;;;;;;;;;;;;10.32;74.18;100528.25;4998802;28;19925;-79
2023/01/11 02:39:33;;;;;;;;;;;;;;;10.34;74.16;100529.63;5005900;28;20389;-79
2023/01/11 02:45:14;;;;;;;;;;;;;;;10.37;74.06;100522.91;5006026;28;19932;-80
2023/01/11 02:47:48;;;;;;;;;;;;;;;10.38;73.86;100522.69;5010219;28;19929;-79
2023/01/11 02:50:13;;;;;;;;;;;;;;;10.40;74.05;100523.22;5005723;28;19922;-78
2023/01/11 02:52:45;;;;;;;;;;;;;;;10.42;73.75;100520.28;5005667;28;19925;-78
2023/01/11 02:55:13;;;;;;;;;;;;;;;10.44;73.87;100528.16;5005222;28;20012;-78
2023/01/11 02:57:39;;;;;;;;;;;;;;;10.45;74.12;100521.69;5008520;28;19917;-78
2023/01/11 03:00:05;;;;;;;;;;;;;;;10.47;74.06;100516.84;5005256;28;19937;-78
2023/01/11 03:02:30;;;;;;;;;;;;;;;10.48;74.16;100519.31;5004952;28;19928;-79
2023/01/11 03:04:55;;;;;;;;;;;;;;;10.50;73.95;100508.25;5006140;28;19929;-77
2023/01/11 03:07:23;;;;;;;;;;;;;;;10.51;74.04;100518.00;5006694;28;19924;-78
2023/01/11 03:09:51;;;;;;;;;;;;;;;10.52;73.87;100530.44;5006561;28;19922;-77
2023/01/11 03:15:30;;;;;;;;;;;;;;;10.55;74.21;100521.84;5006850;28;19928;-77
2023/01/11 03:18:14;;;;;;;;;;;;;;;10.55;74.14;100527.25;5005197;28;19932;-78
2023/01/11 03:20:53;;;;;;;;;;;;;;;10.57;74.24;100525.91;5007535;28;20313;-77
2023/01/11 03:23:31;;;;;;;;;;;;;;;10.60;73.95;100521.91;5007384;28;19925;-78
2023/01/11 03:26:17;;;;;;;;;;;;;;;10.61;74.16;100523.56;5007669;28;19943;-78
2023/01/11 03:28:45;;;;;;;;;;;;;;;10.62;74.12;100519.78;5008887;28;19924;-77
2023/01/11 03:31:17;;;;;;;;;;;;;;;10.63;74.04;100526.81;5001895;28;20397;-78
2023/01/11 03:33:48;;;;;;;;;;;;;;;10.64;73.96;100523.06;5007256;28;20004;-78
2023/01/11 03:36:21;;;;;;;;;;;;;;;10.66;74.04;100529.03;5013288;28;19924;-79
2023/01/11 03:38:52;;;;;;;;;;;;;;;10.68;73.93;100526.88;4992645;28;20385;-79
2023/01/11 03:41:20;;;;;;;;;;;;;;;10.71;74.10;100525.56;5012062;28;19921;-78
2023/01/11 03:43:47;;;;;;;;;;;;;;;10.70;73.99;100527.44;5012790;28;20017;-76
2023/01/11 03:46:15;;;;;;;;;;;;;;;10.72;74.08;100530.72;5004870;28;19925;-78
2023/01/11 03:48:47;;;;;;;;;;;;;;;10.74;73.81;100525.91;5012374;28;19925;-79
2023/01/11 03:51:14;;;;;;;;;;;;;;;10.75;73.99;100532.94;5010554;28;20336;-80
2023/01/11 03:53:43;;;;;;;;;;;;;;;10.77;73.92;100533.50;5006016;28;19928;-76
2023/01/11 03:56:10;;;;;;;;;;;;;;;10.78;74.06;100539.72;5010475;28;20004;-79
2023/01/11 03:58:35;;;;;;;;;;;;;;;10.79;74.11;100542.19;5009376;28;19924;-79
2023/01/11 04:01:01;;;;;;;;;;;;;;;10.80;74.00;100551.91;5006516;28;19922;-79
2023/01/11 04:03:27;;;;;;;;;;;;;;;10.81;73.91;100540.06;5010189;28;19953;-79
2023/01/11 04:05:53;;;;;;;;;;;;;;;10.83;73.91;100547.91;5011763;28;19944;-76
2023/01/11 04:08:19;;;;;;;;;;;;;;;10.83;74.05;100554.13;5000639;28;20032;-78
2023/01/11 04:10:44;;;;;;;;;;;;;;;10.84;74.22;100560.34;4995577;28;20358;-78
2023/01/11 04:13:09;;;;;;;;;;;;;;;10.85;74.05;100559.28;5014277;28;19933;-78
2023/01/11 04:15:35;;;;;;;;;;;;;;;10.87;74.08;100556.34;5030703;28;19922;-79
2023/01/11 04:18:04;;;;;;;;;;;;;;;10.87;73.99;100557.16;5014455;28;19960;-80
2023/01/11 04:20:37;;;;;;;;;;;;;;;10.88;74.27;100556.06;5014895;28;19922;-78
2023/01/11 04:23:02;;;;;;;;;;;;;;;10.89;73.82;100565.00;5013634;28;20313;-79
2023/01/11 04:25:28;;;;;;;;;;;;;;;10.91;74.03;100561.00;5015221;28;20372;-79
2023/01/11 04:27:53;;;;;;;;;;;;;;;10.92;74.02;100573.44;5011647;28;20048;-79
2023/01/11 04:30:18;;;;;;;;;;;;;;;10.94;73.97;100565.91;4995944;28;19922;-79
2023/01/11 04:32:44;;;;;;;;;;;;;;;10.95;73.77;100558.59;5004884;28;19926;-79
2023/01/11 04:35:09;;;;;;;;;;;;;;;10.96;73.87;100562.94;5015062;28;19932;-78
2023/01/11 04:37:34;;;;;;;;;;;;;;;10.97;73.82;100570.78;5013770;28;19926;-78
2023/01/11 04:39:59;;;;;;;;;;;;;;;10.99;73.72;100567.84;5013855;28;20747;-79
2023/01/11 04:42:25;;;;;;;;;;;;;;;11.00;73.94;100574.88;5013875;28;19926;-78
2023/01/11 04:44:51;;;;;;;;;;;;;;;11.00;73.87;100573.00;5029020;28;19927;-79
2023/01/11 04:47:17;;;;;;;;;;;;;;;11.02;73.88;100578.97;5003248;28;19965;-79
2023/01/11 04:49:43;;;;;;;;;;;;;;;11.03;73.80;100580.59;4998890;28;19925;-77
2023/01/11 04:52:10;;;;;;;;;;;;;;;11.05;73.74;100585.75;4994658;28;19918;-79
2023/01/11 04:54:35;;;;;;;;;;;;;;;11.06;73.94;100587.38;5002481;28;20333;-79
2023/01/11 04:57:00;;;;;;;;;;;;;;;11.07;73.79;100580.94;5006858;28;20370;-78
2023/01/11 04:59:26;;;;;;;;;;;;;;;11.08;73.96;100590.66;5012466;28;20447;-79
2023/01/11 05:01:51;;;;;;;;;;;;;;;11.10;74.03;100593.13;5010870;28;20397;-78
2023/01/11 05:04:16;;;;;;;;;;;;;;;11.12;73.73;100596.41;5007814;28;19940;-82
2023/01/11 05:06:41;;;;;;;;;;;;;;;11.12;73.96;100602.63;5015067;28;20362;-79
2023/01/11 05:09:11;;;;;;;;;;;;;;;11.14;73.91;100607.81;5012787;28;19925;-79
2023/01/11 05:11:36;;;;;;;;;;;;;;;11.15;73.69;100604.81;5014599;28;19976;-77
2023/01/11 05:14:01;;;;;;;;;;;;;;;11.16;73.64;100606.47;5008183;28;19989;-78
2023/01/11 05:16:26;;;;;;;;;;;;;;;11.16;73.64;100609.19;4994530;28;19929;-79
2023/01/11 05:18:53;;;;;;;;;;;;;;;11.19;73.87;100602.47;4994504;28;19934;-79
2023/01/11 05:21:19;;;;;;;;;;;;;;;11.19;73.76;100613.28;5005300;28;20019;-79
2023/01/11 05:23:45;;;;;;;;;;;;;;;11.20;73.68;100613.00;5002860;28;19925;-76
2023/01/11 05:26:11;;;;;;;;;;;;;;;11.21;73.66;100611.13;5009374;28;19921;-79
2023/01/11 05:28:37;;;;;;;;;;;;;;;11.22;73.65;100620.88;5013639;28;19918;-79
2023/01/11 05:31:02;;;;;;;;;;;;;;;11.23;73.85;100625.19;5012756;28;20426;-76
2023/01/11 05:33:28;;;;;;;;;;;;;;;11.23;73.65;100639.53;5001892;28;19918;-81
2023/01/11 05:35:59;;;;;;;;;;;;;;;11.24;73.67;100643.91;5001221;28;19979;-80
2023/01/11 05:38:25;;;;;;;;;;;;;;;11.24;73.56;100640.38;5013300;28;20433;-79
2023/01/11 05:40:57;;;;;;;;;;;;;;;11.25;73.52;100652.81;5012988;28;20020;-79
2023/01/11 05:43:22;;;;;;;;;;;;;;;11.25;73.69;100645.53;5013778;28;19925;-81
2023/01/11 05:45:47;;;;;;;;;;;;;;;11.26;73.58;100639.06;5017339;28;19971;-76
2023/01/11 05:48:13;;;;;;;;;;;;;;;11.26;73.50;100652.59;4994438;28;20370;-79
2023/01/11 05:50:38;;;;;;;;;;;;;;;11.26;73.53;100647.16;4994095;28;19941;-80
2023/01/11 05:53:03;;;;;;;;;;;;;;;11.29;73.75;100647.72;4998779;28;19925;-78
2023/01/11 05:55:28;;;;;;;;;;;;;;;11.30;73.58;100649.38;4998964;28;19926;-79
2023/01/11 05:57:54;;;;;;;;;;;;;;;11.30;73.51;100652.06;5004008;28;19960;-82
2023/01/11 06:00:19;;;;;;;;;;;;;;;11.31;73.49;100651.00;4996873;28;19921;-80
2023/01/11 06:02:44;;;;;;;;;;;;;;;11.31;73.52;100656.41;5007566;28;19929;-80
2023/01/11 06:05:10;;;;;;;;;;;;;;;11.32;73.42;100649.94;5011541;28;19926;-79
2023/01/11 06:07:35;;;;;;;;;;;;;;;11.32;73.64;100653.47;5012634;28;20370;-77
2023/01/11 06:10:00;;;;;;;;;;;;;;;11.32;73.44;100661.56;5007787;28;19964;-78
2023/01/11 06:12:25;;;;;;;;;;;;;;;11.34;73.33;100674.81;5011775;28;19917;-79
2023/01/11 06:14:51;;;;;;;;;;;;;;;11.34;73.32;100672.13;5009967;28;19926;-76
2023/01/11 06:17:16;;;;;;;;;;;;;;;11.35;73.37;100679.19;5010279;28;20385;-79
2023/01/11 06:19:41;;;;;;;;;;;;;;;11.34;73.29;100674.81;5004748;28;19968;-77
2023/01/11 06:22:06;;;;;;;;;;;;;;;11.34;73.17;100682.94;5011113;28;19925;-78
2023/01/11 06:24:32;;;;;;;;;;;;;;;11.36;73.10;100683.50;5006442;28;19925;-80
2023/01/11 06:26:57;;;;;;;;;;;;;;;11.37;73.26;100699.50;5006261;28;19926;-80
2023/01/11 06:29:22;;;;;;;;;;;;;;;11.38;73.22;100701.13;5012030;28;20007;-80
2023/01/11 06:31:47;;;;;;;;;;;;;;;11.38;73.44;100705.72;5026295;28;19960;-80
2023/01/11 06:34:13;;;;;;;;;;;;;;;11.39;73.23;100715.47;4992555;28;19984;-80
2023/01/11 06:36:38;;;;;;;;;;;;;;;11.38;73.24;100706.53;4999916;28;20328;-80
2023/01/11 06:39:03;;;;;;;;;;;;;;;11.39;73.38;100693.81;5011829;28;19980;-80
2023/01/11 06:41:29;;;;;;;;;;;;;;;11.38;73.16;100689.50;5012774;28;19964;-80
2023/01/11 06:43:54;;;;;;;;;;;;;;;11.36;73.12;100697.84;5027563;28;20349;-77
2023/01/11 06:46:19;;;;;;;;;;;;;;;11.37;73.14;100723.84;5002649;28;19953;-79
2023/01/11 06:48:45;;;;;;;;;;;;;;;11.37;73.29;100739.25;5005068;28;19929;-80
2023/01/11 06:51:11;;;;;;;;;;;;;;;11.36;73.18;100735.72;5018487;28;19925;-80
2023/01/11 06:53:36;;;;;;;;;;;;;;;11.36;73.28;100730.31;5007742;28;20265;-78
2023/01/11 06:56:01;;;;;;;;;;;;;;;11.36;73.18;100726.78;5005240;28;20441;-80
2023/01/11 06:58:27;;;;;;;;;;;;;;;11.34;73.21;100726.22;5000836;28;19934;-79
2023/01/11 07:00:53;;;;;;;;;;;;;;;11.35;73.27;100734.09;5006749;28;19937;-80
2023/01/11 07:03:23;;;;;;;;;;;;;;;11.35;73.08;100744.91;5004839;28;19968;-80
2023/01/11 07:05:48;;;;;;;;;;;;;;;11.35;73.05;100742.19;5001434;28;19924;-79
2023/01/11 07:08:14;;;;;;;;;;;;;;;11.35;73.10;100755.72;5004388;28;20008;-80
2023/01/11 07:10:39;;;;;;;;;;;;;;;11.35;72.99;100755.72;5009231;28;19964;-80
2023/01/11 07:13:04;;;;;;;;;;;;;;;11.34;73.15;100764.91;5006806;28;19928;-80
2023/01/11 07:15:30;;;;;;;;;;;;;;;11.35;73.13;100771.94;5004941;28;19964;-77
2023/01/11 07:17:57;;;;;;;;;;;;;;;11.34;73.07;100767.63;5004485;28;19952;-79
2023/01/11 07:20:23;;;;;;;;;;;;;;;11.34;73.06;100783.84;5005966;28;20352;-79
2023/01/11 07:22:48;;;;;;;;;;;;;;;11.33;73.13;100782.19;5008123;28;19965;-79
2023/01/11 07:25:14;;;;;;;;;;;;;;;11.33;72.98;100784.06;5004311;28;19926;-79
2023/01/11 07:27:39;;;;;;;;;;;;;;;11.32;72.94;100775.16;5006704;28;20020;-78
2023/01/11 07:30:04;;;;;;;;;;;;;;;11.31;73.00;100775.38;4996607;28;20314;-78
2023/01/11 07:32:30;;;;;;;;;;;;;;;11.31;73.08;100781.59;5002518;28;19928;-77
2023/01/11 07:34:55;;;;;;;;;;;;;;;11.32;72.96;100798.69;5009306;28;19925;-79
2023/01/11 07:37:21;;;;;;;;;;;;;;;11.31;72.96;100791.59;5005634;28;19926;-78
2023/01/11 07:39:46;;;;;;;;;;;;;;;11.30;72.95;100806.22;5003951;28;20495;-77
2023/01/11 07:44:56;;;;;;;;;;;;;;;11.29;72.76;100807.25;5005386;28;19932;-79
2023/01/11 07:47:21;;;;;;;;;;;;;;;11.27;72.91;100811.03;5005222;28;19921;-80
2023/01/11 07:49:46;;;;;;;;;;;;;;;11.27;72.96;100815.63;5006523;28;20370;-79
2023/01/11 07:52:11;;;;;;;;;;;;;;;11.27;72.75;100818.34;5006017;28;19926;-79
2023/01/11 07:54:36;;;;;;;;;;;;;;;11.25;73.01;100823.97;5006320;28;19932;-80
2023/01/11 07:57:02;;;;;;;;;;;;;;;11.25;73.08;100832.09;5005737;28;20033;-79
2023/01/11 07:59:27;;;;;;;;;;;;;;;11.24;73.05;100835.88;5007585;28;19953;-80
2023/01/11 08:01:53;;;;;;;;;;;;;;;11.25;72.98;100845.59;5009104;28;19925;-79
2023/01/11 08:04:18;;;;;;;;;;;;;;;11.24;72.69;100849.38;5006123;28;19991;-80
2023/01/11 08:06:43;;;;;;;;;;;;;;;11.23;72.85;100855.84;5003088;28;19926;-80
2023/01/11 08:09:09;;;;;;;;;;;;;;;11.24;72.80;100871.03;5004397;28;19941;-78
2023/01/11 08:17:02;;;;;;;;;;;;;;;11.21;72.73;100885.03;5006876;28;19948;-72
2023/01/11 08:19:27;;;;;;;;;;;;;;;11.21;72.83;100892.31;5008425;28;20382;-76
2023/01/11 08:21:53;;;;;;;;;;;;;;;11.20;72.85;100894.19;5005249;28;20016;-75
2023/01/11 08:24:18;;;;;;;;;;;;;;;11.20;72.74;100904.19;5011053;28;19935;-76
2023/01/11 08:26:44;;;;;;;;;;;;;;;11.19;72.77;100910.69;5012539;28;19922;-76
2023/01/11 08:29:09;;;;;;;;;;;;;;;11.19;72.75;100918.78;5005392;28;19933;-76
2023/01/11 08:31:34;;;;;;;;;;;;;;;11.18;72.63;100920.66;5007795;28;20381;-75
2023/01/11 08:34:00;;;;;;;;;;;;;;;11.18;72.56;100925.25;5011971;28;20337;-77
2023/01/11 08:36:26;;;;;;;;;;;;;;;11.16;72.65;100925.50;5010328;28;19921;-76
2023/01/11 08:38:54;;;;;;;;;;;;;;;11.16;72.86;100919.25;5007604;28;19925;-76
2023/01/11 08:41:20;;;;;;;;;;;;;;;11.16;72.80;100919.25;5008485;28;19921;-75
2023/01/11 08:43:46;;;;;;;;;;;;;;;11.14;72.83;100932.22;5010124;28;19933;-76
2023/01/11 08:46:11;;;;;;;;;;;;;;;11.14;72.81;100932.22;5006111;28;20285;-76
2023/01/11 08:48:36;;;;;;;;;;;;;;;11.12;72.74;100929.75;5000579;28;20305;-76
2023/01/11 08:51:02;;;;;;;;;;;;;;;11.12;72.63;100928.94;5003768;28;19925;-77
2023/01/11 08:53:27;;;;;;;;;;;;;;;11.11;72.78;100935.38;5009363;28;19921;-75
2023/01/11 08:55:52;;;;;;;;;;;;;;;11.10;72.73;100939.97;5009442;28;19991;-76
2023/01/11 08:58:18;;;;;;;;;;;;;;;11.09;72.55;100934.78;5008883;28;20527;-76
2023/01/11 09:00:43;;;;;;;;;;;;;;;11.08;72.53;100938.56;5007991;28;19922;-76
2023/01/11 09:03:12;;;;;;;;;;;;;;;11.07;72.74;100935.06;5005094;28;19929;-77
2023/01/11 09:05:37;;;;;;;;;;;;;;;11.07;72.78;100936.94;5007819;28;19964;-77
2023/01/11 09:08:03;;;;;;;;;;;;;;;11.06;72.50;100938.78;5010029;28;19961;-76
2023/01/11 09:10:29;;;;;;;;;;;;;;;11.04;72.50;100946.34;5007122;28;19976;-77
2023/01/11 09:12:54;;;;;;;;;;;;;;;11.04;72.56;100947.16;5004167;28;19928;-75
2023/01/11 09:15:20;;;;;;;;;;;;;;;11.04;72.60;100951.75;5005608;28;19925;-77
2023/01/11 09:17:45;;;;;;;;;;;;;;;11.03;72.57;100963.63;5004843;28;20612;-77
2023/01/11 09:20:11;;;;;;;;;;;;;;;11.02;72.70;100964.69;5008412;28;19925;-77
2023/01/11 09:22:36;;;;;;;;;;;;;;;11.02;72.70;100978.19;5006460;28;19963;-76
2023/01/11 09:25:01;;;;;;;;;;;;;;;11.01;72.56;100981.94;5002670;28;19918;-76
2023/01/11 09:27:27;;;;;;;;;;;;;;;11.00;72.59;100978.44;5005034;28;20270;-76
2023/01/11 09:29:55;;;;;;;;;;;;;;;10.99;72.60;100979.50;5007972;28;20385;-76
2023/01/11 09:32:20;;;;;;;;;;;;;;;10.97;72.54;100981.63;5006118;28;19926;-77
2023/01/11 09:34:48;;;;;;;;;;;;;;;10.96;72.70;100976.44;5008890;28;19928;-75
2023/01/11 09:37:16;;;;;;;;;;;;;;;10.96;72.62;100989.94;5003882;28;19926;-75
2023/01/11 09:39:42;;;;;;;;;;;;;;;10.95;72.54;100989.13;5007963;28;19939;-77
2023/01/11 09:42:25;;;;;;;;;;;;;;;10.95;72.34;100997.25;5006917;28;19922;-78
2023/01/11 09:44:53;;;;;;;;;;;;;;;10.94;72.42;101008.31;5009256;28;20361;-70
2023/01/11 09:47:18;;;;;;;;;;;;;;;10.94;72.46;101005.63;5007230;28;19921;-75
2023/01/11 09:49:49;;;;;;;;;;;;;;;10.93;72.60;100995.84;5003787;28;19956;-77
2023/01/11 09:52:25;;;;;;;;;;;;;;;10.93;72.57;101001.25;5005450;28;19921;-76
2023/01/11 09:54:50;;;;;;;;;;;;;;;10.92;72.36;101010.44;5007197;28;19924;-76
2023/01/11 09:57:36;;;;;;;;;;;;;;;10.91;72.64;101015.03;5007369;28;20262;-76
2023/01/11 10:00:31;;;;;;;;;;;;;;;10.90;72.48;101013.34;5005869;28;19953;-76
2023/01/11 10:02:59;;;;;;;;;;;;;;;10.91;72.44;101014.16;5008715;28;19917;-76
2023/01/11 10:05:44;;;;;;;;;;;;;;;10.89;72.40;101022.53;5006045;28;20270;-75
2023/01/11 10:08:23;;;;;;;;;;;;;;;10.89;72.38;101024.44;5007235;28;19914;-77
2023/01/11 10:11:09;;;;;;;;;;;;;;;10.87;72.49;101003.03;4999764;28;19930;-77
2023/01/11 10:13:37;;;;;;;;;;;;;;;10.86;72.24;101020.31;4994942;28;19954;-77
2023/01/11 10:16:04;;;;;;;;;;;;;;;10.86;72.52;101008.66;5005109;28;19965;-76
2023/01/11 10:18:49;;;;;;;;;;;;;;;10.84;72.42;101008.91;5005635;28;19956;-77
2023/01/11 10:21:34;;;;;;;;;;;;;;;10.83;72.07;101008.09;5005607;28;19922;-76
2023/01/11 10:24:02;;;;;;;;;;;;;;;10.82;72.38;101016.44;5004003;28;19921;-77
2023/01/11 10:26:35;;;;;;;;;;;;;;;10.83;72.32;101024.31;5007116;28;19926;-76
2023/01/11 10:34:41;;;;;;;;;;;;;;;10.81;72.36;101023.72;5007514;28;19925;-76
2023/01/11 10:37:43;;;;;;;;;;;;;;;10.80;72.38;101013.97;5007170;28;19914;-76
2023/01/11 10:40:25;;;;;;;;;;;;;;;10.80;72.41;101027.47;5006883;28;19917;-75
2023/01/11 10:42:51;;;;;;;;;;;;;;;10.80;72.23;101027.47;5003772;28;19917;-76
2023/01/11 10:45:24;;;;;;;;;;;;;;;10.80;72.19;101037.47;5005662;28;20407;-77
2023/01/11 10:48:04;;;;;;;;;;;;;;;10.80;72.14;101045.56;5008127;28;19925;-77
2023/01/11 10:50:36;;;;;;;;;;;;;;;10.79;72.14;101041.25;5003118;28;19918;-77
2023/01/11 10:53:22;;;;;;;;;;;;;;;10.77;72.13;101033.34;5008078;28;19923;-77
2023/01/11 10:56:16;;;;;;;;;;;;;;;10.77;72.04;101038.75;5008074;28;19918;-76
2023/01/11 10:58:59;;;;;;;;;;;;;;;10.76;72.20;101044.38;5002112;28;20306;-77
2023/01/11 11:01:45;;;;;;;;;;;;;;;10.76;72.17;101036.28;5006540;28;20261;-77
2023/01/11 11:04:16;;;;;;;;;;;;;;;10.75;72.04;101048.16;5008286;28;19921;-76
2023/01/11 11:06:57;;;;;;;;;;;;;;;10.74;72.20;101043.81;5005872;28;19930;-76
2023/01/11 11:09:46;;;;;;;;;;;;;;;10.73;72.19;101032.16;5006117;28;20373;-76
2023/01/11 11:12:22;;;;;;;;;;;;;;;10.74;72.21;101030.31;5005725;28;20016;-77
2023/01/11 11:15:02;;;;;;;;;;;;;;;10.74;72.23;101031.13;5003691;28;19917;-76
2023/01/11 11:17:32;;;;;;;;;;;;;;;10.73;72.25;101017.84;5003740;28;19973;-76
2023/01/11 11:19:57;;;;;;;;;;;;;;;10.72;72.27;101027.03;5008147;28;19917;-77
2023/01/11 11:22:22;;;;;;;;;;;;;;;10.72;72.18;101027.84;5006814;28;19964;-75
2023/01/11 11:24:59;;;;;;;;;;;;;;;10.72;72.05;101030.53;5006491;28;19917;-77
2023/01/11 11:27:31;;;;;;;;;;;;;;;10.72;72.17;101041.34;5001859;28;19924;-76
2023/01/11 11:29:56;;;;;;;;;;;;;;;10.72;72.21;101038.66;5005701;28;19971;-79
2023/01/11 11:32:30;;;;;;;;;;;;;;;10.71;72.15;101037.00;5007557;28;19918;-76
2023/01/11 11:34:55;;;;;;;;;;;;;;;10.71;72.12;101050.53;5002707;28;19917;-77
2023/01/11 11:37:22;;;;;;;;;;;;;;;10.72;72.06;101059.44;5003282;28;20340;-77
2023/01/11 11:39:49;;;;;;;;;;;;;;;10.71;72.06;101061.34;5007453;28;20423;-77
2023/01/11 11:42:16;;;;;;;;;;;;;;;10.70;71.95;101070.47;5006535;28;19918;-76
2023/01/11 11:44:41;;;;;;;;;;;;;;;10.71;72.05;101079.41;5001986;28;20009;-78
2023/01/11 11:47:14;;;;;;;;;;;;;;;10.71;72.11;101063.19;4999903;28;20012;-77
2023/01/11 11:49:40;;;;;;;;;;;;;;;10.69;71.90;101059.91;5000852;28;19922;-77
2023/01/11 11:52:09;;;;;;;;;;;;;;;10.69;72.09;101063.44;5006866;28;19932;-76
2023/01/11 11:54:52;;;;;;;;;;;;;;;10.68;72.15;101042.88;4999378;28;20386;-77
2023/01/11 11:57:23;;;;;;;;;;;;;;;10.68;72.04;101053.66;5006642;28;19984;-77
2023/01/11 11:59:49;;;;;;;;;;;;;;;10.71;71.91;101038.88;5008554;28;19946;-78
2023/01/11 12:02:21;;;;;;;;;;;;;;;10.69;72.13;101043.72;5011396;28;19964;-77
2023/01/11 12:04:47;;;;;;;;;;;;;;;10.68;72.03;101042.88;5009800;28;20016;-76
2023/01/11 12:07:14;;;;;;;;;;;;;;;10.67;72.16;101032.31;5008337;28;19976;-77
2023/01/11 12:09:42;;;;;;;;;;;;;;;10.68;71.97;101044.75;5006168;28;19921;-76
2023/01/11 12:12:13;;;;;;;;;;;;;;;10.67;71.94;101048.53;5009833;28;20338;-77
2023/01/11 12:14:38;;;;;;;;;;;;;;;10.67;71.95;101051.22;5007111;28;19991;-77
2023/01/11 12:17:23;;;;;;;;;;;;;;;10.66;72.05;101036.91;5005523;28;20381;-76
2023/01/11 12:19:49;;;;;;;;;;;;;;;10.67;71.88;101037.72;5001866;28;19926;-78
2023/01/11 12:22:14;;;;;;;;;;;;;;;10.67;72.12;101048.53;5011220;28;19917;-79
2023/01/11 12:24:39;;;;;;;;;;;;;;;10.66;71.84;101039.59;5008986;28;19936;-77
2023/01/11 12:27:04;;;;;;;;;;;;;;;10.67;71.93;101038.53;5007143;28;19963;-78
2023/01/11 12:29:52;;;;;;;;;;;;;;;10.67;71.99;101043.94;5005958;28;19926;-76
2023/01/11 12:32:20;;;;;;;;;;;;;;;10.67;71.81;101051.22;5009061;28;19967;-76
2023/01/11 12:35:01;;;;;;;;;;;;;;;10.65;71.84;101048.75;5004535;28;20286;-77
2023/01/11 12:37:29;;;;;;;;;;;;;;;10.66;71.77;101047.72;5005905;28;19960;-77
2023/01/11 12:39:59;;;;;;;;;;;;;;;10.65;71.91;101040.66;5005780;28;20387;-76
2023/01/11 12:42:44;;;;;;;;;;;;;;;10.65;71.76;101046.03;5003858;28;19917;-73
2023/01/11 12:45:21;;;;;;;;;;;;;;;10.66;71.75;101036.06;5005028;28;20000;-78
2023/01/11 12:48:04;;;;;;;;;;;;;;;10.66;71.77;101044.16;5006854;28;20402;-79
2023/01/11 12:50:39;;;;;;;;;;;;;;;10.66;71.37;101045.00;5009856;28;19922;-80
2023/01/11 12:53:11;;;;;;;;;;;;;;;10.67;71.55;101043.13;5010624;28;19939;-79
2023/01/11 12:55:39;;;;;;;;;;;;;;;10.67;71.61;101040.41;5005631;28;20389;-79
2023/01/11 12:58:24;;;;;;;;;;;;;;;10.67;71.69;101040.41;5007517;28;20396;-79
2023/01/11 13:00:49;;;;;;;;;;;;;;;10.67;71.62;101051.22;5006989;28;20302;-78
2023/01/11 13:03:17;;;;;;;;;;;;;;;10.67;71.68;101040.41;5009568;28;19924;-79
2023/01/11 13:05:54;;;;;;;;;;;;;;;10.67;71.64;101046.63;5004623;28;19975;-79
2023/01/11 13:08:31;;;;;;;;;;;;;;;10.68;71.55;101055.56;5011812;28;20004;-78
2023/01/11 13:11:02;;;;;;;;;;;;;;;10.68;71.53;101060.97;5009567;28;19965;-78
2023/01/11 13:13:50;;;;;;;;;;;;;;;10.67;71.44;101049.34;5009961;28;20357;-79